createdAt,value
2022-09-25T00:02:06.888Z,4.95
2022-09-25T00:04:34.633Z,4.90
2022-09-25T00:07:03.797Z,5.18
2022-09-25T00:09:31.454Z,5.82
2022-09-25T00:11:59.164Z,4.88
2022-09-25T00:14:26.889Z,4.97
2022-09-25T00:16:54.574Z,5.45
2022-09-25T00:19:41.204Z,5.35
2022-09-25T00:22:10.266Z,5.28
2022-09-25T00:24:37.949Z,5.05
2022-09-25T00:27:08.452Z,5.10
2022-09-25T00:29:38.621Z,5.22
2022-09-25T00:32:07.765Z,5.10
2022-09-25T00:34:35.437Z,5.03
2022-09-25T00:37:03.111Z,5.85
2022-09-25T00:39:32.354Z,5.20
2022-09-25T00:42:00.199Z,5.25
2022-09-25T00:45:00.993Z,5.22
2022-09-25T00:47:53.315Z,5.47
2022-09-25T00:50:30.052Z,5.45
2022-09-25T00:53:03.996Z,5.43
2022-09-25T00:55:35.012Z,5.22
2022-09-25T00:58:04.156Z,4.80
2022-09-25T01:00:33.846Z,5.63
2022-09-25T01:03:04.424Z,5.97
2022-09-25T01:05:36.022Z,5.35
2022-09-25T01:08:06.932Z,4.93
2022-09-25T01:10:37.361Z,4.95
2022-09-25T01:13:06.202Z,4.97
2022-09-25T01:15:41.046Z,4.97
2022-09-25T01:18:19.048Z,5.07
2022-09-25T01:21:34.146Z,5.32
2022-09-25T01:24:39.714Z,4.70
2022-09-25T01:27:52.451Z,5.00
2022-09-25T01:30:22.289Z,4.80
2022-09-25T01:32:57.403Z,5.95
2022-09-25T01:35:35.501Z,4.63
2022-09-25T01:38:15.162Z,4.15
2022-09-25T01:40:49.406Z,4.38
2022-09-25T01:43:20.163Z,5.40
2022-09-25T01:45:52.951Z,5.00
2022-09-25T01:48:26.866Z,5.60
2022-09-25T01:50:58.980Z,5.90
2022-09-25T01:53:32.444Z,4.80
2022-09-25T01:56:04.164Z,5.15
2022-09-25T01:58:38.067Z,5.07
2022-09-25T02:01:11.384Z,5.35
2022-09-25T02:03:44.061Z,4.88
2022-09-25T02:06:16.901Z,4.90
2022-09-25T02:08:49.520Z,4.57
2022-09-25T02:11:17.291Z,5.17
2022-09-25T02:13:49.088Z,5.15
2022-09-25T02:16:23.039Z,5.88
2022-09-25T02:19:08.850Z,5.55
2022-09-25T02:21:44.093Z,5.13
2022-09-25T02:24:20.054Z,5.43
2022-09-25T02:26:48.688Z,5.20
2022-09-25T02:29:16.562Z,4.95
2022-09-25T02:31:49.325Z,5.20
2022-09-25T02:34:17.413Z,5.22
2022-09-25T02:36:45.535Z,4.85
2022-09-25T02:39:16.565Z,4.38
2022-09-25T02:42:04.777Z,4.80
2022-09-25T02:44:42.218Z,6.03
2022-09-25T02:47:22.382Z,5.65
2022-09-25T02:49:55.427Z,5.82
2022-09-25T02:52:31.091Z,5.13
2022-09-25T02:55:05.664Z,5.57
2022-09-25T02:57:40.024Z,5.60
2022-09-25T03:00:10.433Z,5.80
2022-09-25T03:02:40.673Z,5.82
2022-09-25T03:05:12.868Z,5.93
2022-09-25T03:07:55.118Z,5.78
2022-09-25T03:10:24.072Z,5.10
2022-09-25T03:12:51.729Z,5.57
2022-09-25T03:15:20.676Z,6.22
2022-09-25T03:17:52.172Z,5.88
2022-09-25T03:20:20.099Z,5.82
2022-09-25T03:22:48.020Z,6.40
2022-09-25T03:25:16.563Z,5.65
2022-09-25T03:27:44.268Z,6.35
2022-09-25T03:30:12.522Z,6.25
2022-09-25T03:32:42.122Z,6.57
2022-09-25T03:35:11.381Z,6.20
2022-09-25T03:37:39.158Z,6.85
2022-09-25T03:40:08.298Z,6.03
2022-09-25T03:42:36.117Z,7.65
2022-09-25T03:45:03.920Z,7.22
2022-09-25T03:47:31.600Z,8.15
2022-09-25T03:49:59.283Z,7.07
2022-09-25T03:52:28.334Z,6.30
2022-09-25T03:54:55.996Z,6.28
2022-09-25T03:57:23.905Z,6.25
2022-09-25T03:59:51.570Z,7.00
2022-09-25T04:02:19.514Z,6.43
2022-09-25T04:04:47.188Z,6.15
2022-09-25T04:07:14.871Z,7.45
2022-09-25T04:09:43.884Z,7.20
2022-09-25T04:12:11.548Z,6.60
2022-09-25T04:14:39.938Z,7.40
2022-09-25T04:17:07.758Z,6.45
2022-09-25T04:19:35.458Z,7.40
2022-09-25T04:22:03.133Z,5.82
2022-09-25T04:24:48.181Z,7.63
2022-09-25T04:27:19.161Z,6.68
2022-09-25T04:29:47.154Z,7.70
2022-09-25T04:32:34.136Z,6.75
2022-09-25T04:35:02.081Z,7.22
2022-09-25T04:37:30.124Z,6.40
2022-09-25T04:39:58.518Z,6.78
2022-09-25T04:42:27.639Z,6.78
2022-09-25T04:44:56.958Z,8.70
2022-09-25T04:47:28.215Z,7.07
2022-09-25T04:49:55.902Z,5.50
2022-09-25T04:52:24.019Z,5.95
2022-09-25T04:54:51.725Z,5.60
2022-09-25T04:57:45.726Z,6.18
2022-09-25T05:00:12.282Z,5.60
2022-09-25T05:02:40.058Z,7.07
2022-09-25T05:05:09.033Z,9.45
2022-09-25T05:07:36.743Z,11.73
2022-09-25T05:10:04.505Z,9.32
2022-09-25T05:12:32.073Z,7.32
2022-09-25T05:14:59.596Z,8.23
2022-09-25T05:17:28.491Z,9.10
2022-09-25T05:19:56.027Z,21.08
2022-09-25T05:22:23.573Z,18.20
2022-09-25T05:24:58.075Z,10.70
2022-09-25T05:27:26.458Z,10.18
2022-09-25T05:29:54.035Z,10.25
2022-09-25T05:32:22.829Z,16.42
2022-09-25T05:34:51.768Z,18.15
2022-09-25T05:37:20.017Z,25.90
2022-09-25T05:39:47.545Z,16.85
2022-09-25T05:42:19.173Z,13.48
2022-09-25T05:44:47.284Z,10.05
2022-09-25T05:47:14.828Z,8.77
2022-09-25T05:49:42.386Z,8.40
2022-09-25T05:52:11.283Z,8.98
2022-09-25T05:54:38.806Z,9.38
2022-09-25T05:57:06.509Z,9.90
2022-09-25T05:59:34.878Z,9.40
2022-09-25T06:02:02.474Z,9.05
2022-09-25T06:04:30.329Z,9.85
2022-09-25T06:07:02.474Z,9.43
2022-09-25T06:09:31.361Z,9.82
2022-09-25T06:11:59.068Z,9.98
2022-09-25T06:14:26.602Z,8.45
2022-09-25T06:16:54.608Z,8.45
2022-09-25T06:19:22.161Z,9.10
2022-09-25T06:21:50.021Z,9.50
2022-09-25T06:24:17.613Z,9.60
2022-09-25T06:26:47.124Z,9.98
2022-09-25T06:29:14.618Z,9.02
2022-09-25T06:31:42.206Z,7.95
2022-09-25T06:34:10.353Z,8.27
2022-09-25T06:36:38.025Z,8.77
2022-09-25T06:39:06.173Z,7.53
2022-09-25T06:41:33.681Z,7.88
2022-09-25T06:44:04.567Z,7.28
2022-09-25T06:46:32.230Z,7.95
2022-09-25T06:48:59.805Z,7.50
2022-09-25T06:51:32.224Z,6.93
2022-09-25T06:53:59.948Z,8.23
2022-09-25T06:56:27.492Z,8.27
2022-09-25T06:58:55.040Z,8.52
2022-09-25T07:01:23.976Z,7.68
2022-09-25T07:03:50.581Z,10.15
2022-09-25T07:06:20.641Z,7.75
2022-09-25T07:08:49.359Z,6.45
2022-09-25T07:11:18.600Z,8.30
2022-09-25T07:13:46.361Z,7.57
2022-09-25T07:16:15.553Z,6.15
2022-09-25T07:18:44.885Z,5.90
2022-09-25T07:21:14.242Z,5.80
2022-09-25T07:23:42.508Z,5.35
2022-09-25T07:26:12.736Z,5.50
2022-09-25T07:28:42.484Z,5.63
2022-09-25T07:31:15.684Z,5.18
2022-09-25T07:36:12.984Z,5.43
2022-09-25T07:38:41.113Z,5.15
2022-09-25T07:41:11.263Z,5.15
2022-09-25T07:43:39.348Z,5.72
2022-09-25T07:46:07.734Z,5.93
2022-09-25T07:48:35.297Z,5.78
2022-09-25T07:51:06.906Z,6.45
2022-09-25T07:53:34.643Z,9.15
2022-09-25T07:56:06.624Z,7.85
2022-09-25T07:58:35.581Z,6.68
2022-09-25T08:01:06.152Z,8.98
2022-09-25T08:03:34.208Z,9.98
2022-09-25T08:06:02.937Z,8.57
2022-09-25T08:08:32.493Z,8.50
2022-09-25T08:11:02.545Z,9.45
2022-09-25T08:13:30.532Z,7.90
2022-09-25T08:15:58.121Z,10.02
2022-09-25T08:18:25.763Z,9.43
2022-09-25T08:20:53.369Z,9.82
2022-09-25T08:23:20.991Z,9.18
2022-09-25T08:25:50.219Z,8.82
2022-09-25T08:28:17.895Z,8.18
2022-09-25T08:30:45.608Z,8.57
2022-09-25T08:33:15.705Z,9.32
2022-09-25T08:35:43.977Z,9.57
2022-09-25T08:38:12.077Z,10.00
2022-09-25T08:40:47.639Z,9.73
2022-09-25T08:43:22.583Z,11.15
2022-09-25T08:46:08.948Z,12.05
2022-09-25T08:48:58.984Z,10.93
2022-09-25T08:51:28.384Z,10.75
2022-09-25T08:53:56.004Z,10.93
2022-09-25T08:56:25.599Z,11.43
2022-09-25T08:59:03.135Z,10.82
2022-09-25T09:01:40.891Z,11.85
2022-09-25T09:04:19.016Z,14.07
2022-09-25T09:07:08.046Z,13.05
2022-09-25T09:09:42.713Z,12.60
2022-09-25T09:12:14.698Z,13.80
2022-09-25T09:14:46.969Z,13.07
2022-09-25T09:17:19.041Z,12.02
2022-09-25T09:19:49.388Z,12.65
2022-09-25T09:22:25.168Z,12.95
2022-09-25T09:25:00.828Z,12.48
2022-09-25T09:27:42.531Z,11.77
2022-09-25T09:30:19.513Z,11.80
2022-09-25T09:33:01.294Z,10.45
2022-09-25T09:35:39.921Z,11.35
2022-09-25T09:38:18.050Z,10.68
2022-09-25T09:41:00.701Z,11.05
2022-09-25T09:43:39.974Z,10.07
2022-09-25T09:46:21.900Z,10.00
2022-09-25T09:49:04.293Z,9.98
2022-09-25T09:51:36.513Z,11.82
2022-09-25T09:54:08.201Z,10.50
2022-09-25T09:56:36.994Z,10.38
2022-09-25T09:59:07.852Z,9.75
2022-09-25T10:01:42.164Z,10.18
2022-09-25T10:04:13.794Z,11.30
2022-09-25T10:06:46.780Z,11.85
2022-09-25T10:09:16.687Z,9.43
2022-09-25T10:11:46.518Z,9.88
2022-09-25T10:14:21.107Z,9.18
2022-09-25T10:16:51.526Z,8.80
2022-09-25T10:19:22.573Z,8.23
2022-09-25T10:21:54.042Z,7.30
2022-09-25T10:24:49.772Z,6.50
2022-09-25T10:27:23.725Z,6.30
2022-09-25T10:30:02.841Z,5.90
2022-09-25T10:32:33.844Z,5.07
2022-09-25T10:35:02.111Z,5.60
2022-09-25T10:37:35.502Z,5.75
2022-09-25T10:42:38.478Z,5.03
2022-09-25T10:45:38.443Z,6.00
2022-09-25T10:48:44.463Z,5.15
2022-09-25T10:51:17.600Z,5.10
2022-09-25T10:53:46.702Z,4.85
2022-09-25T10:56:18.079Z,5.38
2022-09-25T10:58:48.710Z,5.07
2022-09-25T11:01:17.174Z,5.13
2022-09-25T11:03:53.371Z,4.32
2022-09-25T11:06:24.739Z,5.07
2022-09-25T11:09:07.630Z,5.30
2022-09-25T11:11:37.561Z,4.90
2022-09-25T11:14:08.438Z,4.90
2022-09-25T11:16:51.246Z,4.28
2022-09-25T11:19:25.405Z,4.40
2022-09-25T11:22:01.144Z,3.88
2022-09-25T11:24:40.429Z,3.97
2022-09-25T11:27:14.269Z,4.03
2022-09-25T11:29:48.104Z,4.07
2022-09-25T11:32:23.509Z,3.95
2022-09-25T11:35:14.060Z,3.95
2022-09-25T11:37:51.281Z,4.22
2022-09-25T11:40:48.632Z,4.30
2022-09-25T11:43:21.888Z,5.13
2022-09-25T11:45:54.611Z,4.65
2022-09-25T11:48:27.434Z,3.30
2022-09-25T11:51:03.607Z,3.20
2022-09-25T11:53:40.099Z,3.15
2022-09-25T11:56:21.386Z,2.83
2022-09-25T11:59:04.358Z,3.25
2022-09-25T12:01:39.266Z,2.90
2022-09-25T12:04:41.647Z,3.22
2022-09-25T12:07:39.400Z,3.55
2022-09-25T12:10:26.590Z,3.40
2022-09-25T12:13:02.048Z,3.58
2022-09-25T12:15:49.266Z,3.38
2022-09-25T12:18:33.926Z,3.60
2022-09-25T12:21:06.156Z,3.70
2022-09-25T12:23:42.450Z,3.63
2022-09-25T12:26:23.840Z,3.40
2022-09-25T12:29:07.963Z,3.80
2022-09-25T12:31:49.580Z,4.90
2022-09-25T12:34:29.742Z,3.25
2022-09-25T12:37:07.150Z,3.20
2022-09-25T12:39:41.973Z,3.40
2022-09-25T12:42:17.703Z,3.70
2022-09-25T12:44:50.334Z,3.58
2022-09-25T12:47:26.216Z,3.30
2022-09-25T12:49:58.994Z,5.18
2022-09-25T12:52:31.431Z,5.85
2022-09-25T12:55:05.384Z,5.95
2022-09-25T12:57:38.977Z,5.45
2022-09-25T13:00:14.926Z,5.70
2022-09-25T13:02:49.823Z,5.63
2022-09-25T13:05:22.355Z,6.72
2022-09-25T13:07:55.648Z,7.43
2022-09-25T13:10:30.017Z,7.43
2022-09-25T13:13:01.811Z,7.65
2022-09-25T13:15:33.182Z,7.82
2022-09-25T13:18:01.089Z,6.90
2022-09-25T13:20:48.736Z,7.80
2022-09-25T13:23:20.216Z,7.47
2022-09-25T13:25:53.576Z,7.68
2022-09-25T13:31:09.930Z,6.97
2022-09-25T13:33:50.421Z,7.18
2022-09-25T13:36:33.744Z,7.00
2022-09-25T13:39:22.753Z,6.63
2022-09-25T13:41:55.365Z,4.35
2022-09-25T13:44:50.071Z,4.72
2022-09-25T13:47:54.643Z,4.57
2022-09-25T13:50:31.682Z,4.43
2022-09-25T13:53:18.204Z,3.00
2022-09-25T13:56:23.243Z,2.60
2022-09-25T13:59:21.140Z,2.40
2022-09-25T14:01:51.581Z,2.17
2022-09-25T14:04:31.631Z,1.92
2022-09-25T14:07:11.857Z,3.88
2022-09-25T14:09:44.804Z,4.63
2022-09-25T14:12:22.686Z,3.53
2022-09-25T14:14:57.021Z,3.38
2022-09-25T14:17:29.741Z,3.90
2022-09-25T14:19:59.378Z,3.67
2022-09-25T14:22:34.425Z,4.10
2022-09-25T14:25:02.900Z,4.10
2022-09-25T14:27:30.842Z,3.80
2022-09-25T14:30:11.016Z,4.10
2022-09-25T14:32:55.542Z,4.40
2022-09-25T14:35:45.269Z,4.15
2022-09-25T14:38:40.441Z,3.78
2022-09-25T14:41:35.216Z,3.35
2022-09-25T14:44:25.690Z,3.08
2022-09-25T14:46:57.208Z,3.47
2022-09-25T14:49:28.583Z,3.53
2022-09-25T14:52:00.250Z,2.75
2022-09-25T14:54:33.242Z,2.17
2022-09-25T14:57:03.841Z,2.20
2022-09-25T14:59:37.763Z,1.80
2022-09-25T15:02:17.331Z,1.35
2022-09-25T15:04:44.973Z,1.73
2022-09-25T15:07:17.361Z,1.30
2022-09-25T15:09:48.281Z,1.10
2022-09-25T15:12:19.953Z,1.30
2022-09-25T15:15:01.618Z,1.70
2022-09-25T15:17:31.365Z,2.15
2022-09-25T15:20:01.736Z,1.85
2022-09-25T15:22:33.833Z,2.47
2022-09-25T15:25:06.166Z,2.70
2022-09-25T15:27:36.876Z,2.80
2022-09-25T15:30:05.077Z,3.83
2022-09-25T15:32:39.325Z,4.70
2022-09-25T15:35:15.778Z,5.38
2022-09-25T15:37:43.360Z,5.95
2022-09-25T15:40:22.696Z,5.45
2022-09-25T15:42:50.901Z,6.65
2022-09-25T15:45:39.534Z,6.13
2022-09-25T15:48:21.725Z,6.20
2022-09-25T15:50:49.984Z,7.53
2022-09-25T15:53:25.988Z,7.63
2022-09-25T15:56:04.643Z,8.40
2022-09-25T15:58:34.880Z,8.57
2022-09-25T16:01:21.916Z,8.85
2022-09-25T16:04:11.749Z,9.02
2022-09-25T16:06:42.707Z,8.25
2022-09-25T16:09:20.159Z,6.85
2022-09-25T16:11:48.789Z,6.35
2022-09-25T16:14:22.796Z,6.65
2022-09-25T16:16:51.868Z,6.40
2022-09-25T16:19:38.696Z,6.75
2022-09-25T16:22:20.137Z,5.55
2022-09-25T16:24:51.852Z,6.18
2022-09-25T16:27:33.818Z,5.47
2022-09-25T16:30:04.637Z,5.78
2022-09-25T16:32:32.783Z,5.20
2022-09-25T16:35:03.723Z,5.55
2022-09-25T16:37:34.136Z,5.85
2022-09-25T16:40:22.722Z,5.35
2022-09-25T16:42:51.379Z,5.63
2022-09-25T16:45:23.556Z,6.20
2022-09-25T16:47:51.694Z,6.60
2022-09-25T16:50:22.630Z,7.07
2022-09-25T16:52:50.557Z,7.18
2022-09-25T16:55:21.447Z,6.90
2022-09-25T16:57:49.032Z,7.05
2022-09-25T17:00:19.085Z,7.18
2022-09-25T17:02:48.604Z,7.55
2022-09-25T17:05:19.707Z,7.28
2022-09-25T17:07:50.695Z,7.80
2022-09-25T17:10:22.058Z,6.18
2022-09-25T17:12:53.971Z,8.00
2022-09-25T17:15:24.718Z,7.40
2022-09-25T17:17:54.979Z,7.82
2022-09-25T17:20:24.578Z,8.18
2022-09-25T17:22:54.705Z,6.68
2022-09-25T17:25:29.384Z,6.45
2022-09-25T17:27:56.902Z,7.28
2022-09-25T17:30:24.433Z,6.05
2022-09-25T17:32:52.442Z,6.45
2022-09-25T17:35:33.318Z,7.35
2022-09-25T17:38:02.288Z,7.10
2022-09-25T17:40:30.393Z,7.78
2022-09-25T17:42:58.269Z,10.88
2022-09-25T17:45:34.790Z,12.60
2022-09-25T17:48:02.844Z,9.30
2022-09-25T17:50:31.248Z,10.02
2022-09-25T17:52:59.221Z,8.35
2022-09-25T17:55:28.089Z,7.32
2022-09-25T17:57:56.772Z,7.13
2022-09-25T18:00:25.322Z,7.68
2022-09-25T18:02:53.094Z,7.05
2022-09-25T18:05:20.937Z,6.57
2022-09-25T18:07:48.670Z,6.07
2022-09-25T18:10:17.840Z,6.32
2022-09-25T18:12:46.843Z,6.57
2022-09-25T18:15:14.834Z,7.13
2022-09-25T18:17:42.451Z,6.72
2022-09-25T18:20:31.522Z,6.40
2022-09-25T18:22:59.209Z,6.45
2022-09-25T18:25:26.857Z,6.65
2022-09-25T18:27:55.739Z,6.35
2022-09-25T18:30:24.774Z,6.20
2022-09-25T18:32:52.377Z,5.90
2022-09-25T18:35:21.033Z,5.90
2022-09-25T18:37:48.859Z,5.60
2022-09-25T18:40:19.276Z,5.30
2022-09-25T18:42:48.161Z,5.30
2022-09-25T18:45:17.237Z,5.30
2022-09-25T18:47:46.633Z,5.90
2022-09-25T18:50:19.593Z,5.75
2022-09-25T18:52:48.213Z,5.35
2022-09-25T18:55:16.669Z,5.22
2022-09-25T18:57:44.218Z,5.30
2022-09-25T19:00:12.979Z,6.05
2022-09-25T19:02:42.516Z,6.28
2022-09-25T19:05:11.206Z,5.75
2022-09-25T19:07:38.872Z,6.25
2022-09-25T19:10:09.468Z,6.32
2022-09-25T19:12:37.081Z,5.03
2022-09-25T19:15:05.461Z,5.30
2022-09-25T19:17:33.378Z,5.57
2022-09-25T19:20:02.867Z,4.72
2022-09-25T19:22:31.161Z,4.78
2022-09-25T19:24:58.672Z,4.50
2022-09-25T19:27:28.924Z,4.80
2022-09-25T19:29:56.431Z,4.72
2022-09-25T19:32:25.241Z,5.00
2022-09-25T19:34:54.195Z,5.88
2022-09-25T19:37:26.262Z,5.68
2022-09-25T19:40:11.775Z,17.23
2022-09-25T19:42:39.350Z,10.50
2022-09-25T19:45:08.135Z,7.00
2022-09-25T19:47:35.657Z,5.15
2022-09-25T19:50:06.831Z,4.47
2022-09-25T19:52:35.817Z,9.45
2022-09-25T19:55:03.442Z,9.23
2022-09-25T19:57:31.013Z,5.57
2022-09-25T20:00:00.315Z,4.57
2022-09-25T20:02:27.929Z,4.80
2022-09-25T20:04:55.505Z,5.15
2022-09-25T20:07:23.070Z,7.97
2022-09-25T20:09:52.054Z,8.73
2022-09-25T20:12:19.602Z,7.82
2022-09-25T20:14:50.504Z,8.00
2022-09-25T20:17:18.012Z,6.00
2022-09-25T20:19:45.548Z,5.53
2022-09-25T20:22:13.061Z,6.30
2022-09-25T20:24:40.632Z,5.20
2022-09-25T20:27:09.524Z,5.93
2022-09-25T20:29:37.091Z,5.35
2022-09-25T20:32:04.747Z,8.73
2022-09-25T20:34:32.285Z,8.77
2022-09-25T20:36:59.804Z,4.90
2022-09-25T20:39:27.901Z,4.68
2022-09-25T20:41:56.021Z,4.78
2022-09-25T20:44:24.895Z,4.22
2022-09-25T20:46:52.399Z,4.10
2022-09-25T20:49:20.060Z,4.43
2022-09-25T20:51:47.646Z,4.00
2022-09-25T20:54:15.195Z,4.95
2022-09-25T20:56:44.755Z,4.82
2022-09-25T20:59:14.589Z,4.30
2022-09-25T21:01:43.594Z,4.30
2022-09-25T21:04:11.418Z,4.07
2022-09-25T21:06:40.948Z,4.07
2022-09-25T21:09:11.253Z,4.10
2022-09-25T21:11:40.267Z,3.85
2022-09-25T21:14:07.904Z,4.93
2022-09-25T21:16:35.541Z,3.70
2022-09-25T21:19:04.986Z,4.80
2022-09-25T21:21:34.104Z,4.38
2022-09-25T21:24:02.317Z,9.60
2022-09-25T21:26:31.784Z,11.75
2022-09-25T21:29:01.409Z,5.75
2022-09-25T21:31:31.590Z,4.93
2022-09-25T21:34:00.446Z,4.43
2022-09-25T21:36:30.205Z,4.20
2022-09-25T21:38:58.235Z,6.47
2022-09-25T21:41:27.556Z,9.07
2022-09-25T21:43:56.322Z,5.97
2022-09-25T21:46:25.003Z,5.05
2022-09-25T21:48:54.551Z,5.20
2022-09-25T21:51:24.589Z,4.95
2022-09-25T21:53:55.124Z,4.88
2022-09-25T21:56:24.362Z,4.63
2022-09-25T21:58:53.503Z,4.05
2022-09-25T22:01:23.693Z,3.92
2022-09-25T22:03:55.145Z,3.50
2022-09-25T22:06:24.934Z,4.10
2022-09-25T22:08:55.709Z,5.93
2022-09-25T22:11:23.400Z,7.15
2022-09-25T22:13:52.913Z,4.70
2022-09-25T22:16:22.827Z,4.25
2022-09-25T22:18:53.117Z,4.63
2022-09-25T22:21:24.141Z,4.40
2022-09-25T22:23:52.222Z,4.10
2022-09-25T22:26:21.853Z,4.43
2022-09-25T22:28:50.170Z,3.15
2022-09-25T22:31:20.138Z,3.50
2022-09-25T22:33:49.547Z,3.42
2022-09-25T22:36:17.077Z,2.97
2022-09-25T22:38:44.621Z,4.32
2022-09-25T22:41:13.648Z,4.15
2022-09-25T22:43:43.227Z,3.80
2022-09-25T22:46:12.738Z,4.18
2022-09-25T22:48:40.625Z,3.60
2022-09-25T22:51:11.312Z,3.28
2022-09-25T22:53:39.333Z,3.35
2022-09-25T22:56:12.219Z,3.53
2022-09-25T22:58:39.785Z,3.60
2022-09-25T23:01:12.747Z,2.97
2022-09-25T23:03:40.529Z,3.80
2022-09-25T23:06:08.598Z,3.03
2022-09-25T23:08:36.556Z,3.17
2022-09-25T23:11:07.882Z,2.92
2022-09-25T23:13:36.841Z,2.88
2022-09-25T23:16:07.071Z,3.00
2022-09-25T23:18:37.110Z,3.80
2022-09-25T23:21:05.314Z,3.55
2022-09-25T23:23:33.328Z,3.22
2022-09-25T23:26:06.713Z,3.00
2022-09-25T23:31:07.180Z,2.80
2022-09-25T23:33:36.940Z,2.97
2022-09-25T23:36:06.483Z,3.28
2022-09-25T23:38:34.717Z,3.03
2022-09-25T23:41:02.705Z,3.35
2022-09-25T23:43:30.359Z,3.58
2022-09-25T23:45:57.972Z,3.00
2022-09-25T23:48:25.527Z,2.92
2022-09-25T23:50:54.389Z,2.80
2022-09-25T23:53:21.880Z,2.40
2022-09-25T23:55:50.936Z,4.15
2022-09-25T23:58:18.789Z,3.85
